sensor_id;sensor_type;location;lat;lon;timestamp;pressure;altitude;pressure_sealevel;temperature;humidity
75317;BME280;63913;51.492;10.368;2023-07-16T00:00:57;97873.97;;;21.05;77.75
75317;BME280;63913;51.492;10.368;2023-07-16T00:03:22;97863.47;;;21.06;78.30
75317;BME280;63913;51.492;10.368;2023-07-16T00:05:51;97862.63;;;21.06;78.75
75317;BME280;63913;51.492;10.368;2023-07-16T00:08:16;97863.34;;;21.11;79.36
75317;BME280;63913;51.492;10.368;2023-07-16T00:10:42;97875.50;;;21.12;78.46
75317;BME280;63913;51.492;10.368;2023-07-16T00:13:07;97902.19;;;20.93;78.54
75317;BME280;63913;51.492;10.368;2023-07-16T00:15:32;97904.75;;;20.95;79.08
75317;BME280;63913;51.492;10.368;2023-07-16T00:17:58;97922.16;;;20.96;79.69
75317;BME280;63913;51.492;10.368;2023-07-16T00:20:23;97915.22;;;20.95;80.11
75317;BME280;63913;51.492;10.368;2023-07-16T00:22:49;97918.81;;;20.91;80.98
75317;BME280;63913;51.492;10.368;2023-07-16T00:25:15;97924.09;;;20.89;80.02
75317;BME280;63913;51.492;10.368;2023-07-16T00:27:40;97923.19;;;20.90;80.21
75317;BME280;63913;51.492;10.368;2023-07-16T00:30:07;97912.00;;;20.85;80.99
75317;BME280;63913;51.492;10.368;2023-07-16T00:32:33;97920.69;;;20.86;81.29
75317;BME280;63913;51.492;10.368;2023-07-16T00:34:58;97925.97;;;20.84;80.36
75317;BME280;63913;51.492;10.368;2023-07-16T00:37:24;97907.78;;;20.81;81.24
75317;BME280;63913;51.492;10.368;2023-07-16T00:39:49;97908.66;;;20.80;81.26
75317;BME280;63913;51.492;10.368;2023-07-16T00:42:16;97909.75;;;20.73;81.20
75317;BME280;63913;51.492;10.368;2023-07-16T00:44:41;97901.13;;;20.70;82.14
75317;BME280;63913;51.492;10.368;2023-07-16T00:47:08;97877.84;;;20.61;81.72
75317;BME280;63913;51.492;10.368;2023-07-16T00:49:34;97862.97;;;20.64;82.29
75317;BME280;63913;51.492;10.368;2023-07-16T00:52:00;97845.88;;;20.52;82.11
75317;BME280;63913;51.492;10.368;2023-07-16T00:54:26;97857.09;;;20.56;82.14
75317;BME280;63913;51.492;10.368;2023-07-16T00:56:52;97859.03;;;20.49;82.38
75317;BME280;63913;51.492;10.368;2023-07-16T00:59:18;97876.41;;;20.50;82.77
75317;BME280;63913;51.492;10.368;2023-07-16T01:01:43;97882.56;;;20.48;82.87
75317;BME280;63913;51.492;10.368;2023-07-16T01:04:12;97879.88;;;20.51;82.37
75317;BME280;63913;51.492;10.368;2023-07-16T01:06:39;97859.78;;;20.53;82.54
75317;BME280;63913;51.492;10.368;2023-07-16T01:09:19;97860.69;;;20.52;82.63
75317;BME280;63913;51.492;10.368;2023-07-16T01:11:46;97851.97;;;20.51;82.19
75317;BME280;63913;51.492;10.368;2023-07-16T01:14:13;97856.50;;;20.46;82.72
75317;BME280;63913;51.492;10.368;2023-07-16T01:16:40;97861.97;;;20.37;83.06
75317;BME280;63913;51.492;10.368;2023-07-16T01:19:06;97867.22;;;20.36;83.08
75317;BME280;63913;51.492;10.368;2023-07-16T01:24:07;97878.66;;;20.30;83.72
75317;BME280;63913;51.492;10.368;2023-07-16T01:29:41;97876.13;;;20.27;83.84
75317;BME280;63913;51.492;10.368;2023-07-16T01:32:11;97840.41;;;20.28;83.93
75317;BME280;63913;51.492;10.368;2023-07-16T01:34:38;97835.94;;;20.33;83.83
75317;BME280;63913;51.492;10.368;2023-07-16T01:37:04;97838.78;;;20.25;83.46
75317;BME280;63913;51.492;10.368;2023-07-16T01:39:31;97849.19;;;20.27;83.46
75317;BME280;63913;51.492;10.368;2023-07-16T01:41:58;97840.56;;;20.23;83.16
75317;BME280;63913;51.492;10.368;2023-07-16T01:44:23;97834.25;;;20.30;83.17
75317;BME280;63913;51.492;10.368;2023-07-16T01:47:10;97868.50;;;20.19;82.99
75317;BME280;63913;51.492;10.368;2023-07-16T01:49:36;97886.75;;;20.19;83.61
75317;BME280;63913;51.492;10.368;2023-07-16T01:52:03;97888.66;;;20.14;83.49
75317;BME280;63913;51.492;10.368;2023-07-16T01:54:29;97898.38;;;20.09;83.65
75317;BME280;63913;51.492;10.368;2023-07-16T01:56:56;97882.63;;;20.11;83.29
75317;BME280;63913;51.492;10.368;2023-07-16T01:59:22;97885.31;;;20.09;83.08
75317;BME280;63913;51.492;10.368;2023-07-16T02:01:47;97887.84;;;20.11;82.99
75317;BME280;63913;51.492;10.368;2023-07-16T02:04:13;97883.47;;;20.13;82.34
75317;BME280;63913;51.492;10.368;2023-07-16T02:06:38;97868.63;;;20.15;82.08
75317;BME280;63913;51.492;10.368;2023-07-16T02:09:04;97879.03;;;20.16;81.64
75317;BME280;63913;51.492;10.368;2023-07-16T02:11:29;97892.16;;;20.13;81.79
75317;BME280;63913;51.492;10.368;2023-07-16T02:13:55;97895.66;;;20.12;81.33
75317;BME280;63913;51.492;10.368;2023-07-16T02:16:20;97892.25;;;20.10;80.87
75317;BME280;63913;51.492;10.368;2023-07-16T02:18:45;97893.03;;;20.12;80.99
75317;BME280;63913;51.492;10.368;2023-07-16T02:21:11;97886.09;;;20.11;80.81
75317;BME280;63913;51.492;10.368;2023-07-16T02:23:36;97892.16;;;20.13;80.78
75317;BME280;63913;51.492;10.368;2023-07-16T02:26:02;97887.84;;;20.11;80.51
75317;BME280;63913;51.492;10.368;2023-07-16T02:28:27;97889.50;;;20.15;79.98
75317;BME280;63913;51.492;10.368;2023-07-16T02:30:53;97881.63;;;20.16;79.82
75317;BME280;63913;51.492;10.368;2023-07-16T02:33:18;97875.63;;;20.13;79.70
75317;BME280;63913;51.492;10.368;2023-07-16T02:35:47;97880.09;;;20.09;78.51
75317;BME280;63913;51.492;10.368;2023-07-16T02:38:17;97888.88;;;20.05;78.27
75317;BME280;63913;51.492;10.368;2023-07-16T02:40:46;97883.66;;;20.05;78.36
75317;BME280;63913;51.492;10.368;2023-07-16T02:43:12;97891.47;;;20.07;78.32
75317;BME280;63913;51.492;10.368;2023-07-16T02:45:38;97889.81;;;20.03;77.85
75317;BME280;63913;51.492;10.368;2023-07-16T02:48:04;97888.13;;;20.02;77.15
75317;BME280;63913;51.492;10.368;2023-07-16T02:50:30;97895.16;;;19.98;77.55
75317;BME280;63913;51.492;10.368;2023-07-16T02:52:58;97889.88;;;20.01;77.09
75317;BME280;63913;51.492;10.368;2023-07-16T02:55:23;97897.63;;;20.03;77.26
75317;BME280;63913;51.492;10.368;2023-07-16T02:57:49;97914.31;;;19.97;76.59
75317;BME280;63913;51.492;10.368;2023-07-16T03:00:14;97910.97;;;19.92;76.85
75317;BME280;63913;51.492;10.368;2023-07-16T03:02:40;97914.44;;;19.93;76.96
75317;BME280;63913;51.492;10.368;2023-07-16T03:05:05;97918.75;;;19.94;76.74
75317;BME280;63913;51.492;10.368;2023-07-16T03:07:31;97924.03;;;19.92;76.97
75317;BME280;63913;51.492;10.368;2023-07-16T03:09:56;97935.34;;;19.91;77.14
75317;BME280;63913;51.492;10.368;2023-07-16T03:12:21;97931.84;;;19.92;76.51
75317;BME280;63913;51.492;10.368;2023-07-16T03:14:47;97923.16;;;19.92;76.79
75317;BME280;63913;51.492;10.368;2023-07-16T03:17:13;97932.75;;;19.91;76.77
75317;BME280;63913;51.492;10.368;2023-07-16T03:19:38;97937.91;;;19.94;76.44
75317;BME280;63913;51.492;10.368;2023-07-16T03:22:04;97937.91;;;19.94;76.61
75317;BME280;63913;51.492;10.368;2023-07-16T03:24:29;97936.25;;;19.89;76.31
75317;BME280;63913;51.492;10.368;2023-07-16T03:26:55;97938.00;;;19.90;75.44
75317;BME280;63913;51.492;10.368;2023-07-16T03:29:21;97945.66;;;19.96;76.12
75317;BME280;63913;51.492;10.368;2023-07-16T03:31:46;97952.59;;;19.97;74.85
75317;BME280;63913;51.492;10.368;2023-07-16T03:34:14;97962.31;;;19.92;75.58
75317;BME280;63913;51.492;10.368;2023-07-16T03:36:40;97970.97;;;19.94;75.11
75317;BME280;63913;51.492;10.368;2023-07-16T03:39:07;97979.94;;;19.80;74.94
75317;BME280;63913;51.492;10.368;2023-07-16T03:41:33;97981.91;;;19.71;75.21
75317;BME280;63913;51.492;10.368;2023-07-16T03:43:58;97989.00;;;19.64;75.79
75317;BME280;63913;51.492;10.368;2023-07-16T03:46:24;97996.06;;;19.61;75.31
75317;BME280;63913;51.492;10.368;2023-07-16T03:48:53;97994.25;;;19.63;75.24
75317;BME280;63913;51.492;10.368;2023-07-16T03:51:18;97998.63;;;19.62;74.93
75317;BME280;63913;51.492;10.368;2023-07-16T03:53:44;97999.53;;;19.61;74.09
75317;BME280;63913;51.492;10.368;2023-07-16T03:56:09;98000.47;;;19.57;74.53
75317;BME280;63913;51.492;10.368;2023-07-16T03:58:35;98007.41;;;19.58;74.41
75317;BME280;63913;51.492;10.368;2023-07-16T04:01:01;98008.31;;;19.56;74.39
75317;BME280;63913;51.492;10.368;2023-07-16T04:03:26;98010.94;;;19.56;73.84
75317;BME280;63913;51.492;10.368;2023-07-16T04:06:00;98014.50;;;19.53;74.39
75317;BME280;63913;51.492;10.368;2023-07-16T04:08:25;98024.22;;;19.43;74.12
75317;BME280;63913;51.492;10.368;2023-07-16T04:10:51;98026.78;;;19.45;74.72
75317;BME280;63913;51.492;10.368;2023-07-16T04:13:16;98029.34;;;19.47;73.95
75317;BME280;63913;51.492;10.368;2023-07-16T04:15:41;98038.91;;;19.49;73.76
75317;BME280;63913;51.492;10.368;2023-07-16T04:18:07;98037.22;;;19.45;73.45
75317;BME280;63913;51.492;10.368;2023-07-16T04:20:32;98043.22;;;19.50;73.36
75317;BME280;63913;51.492;10.368;2023-07-16T04:22:58;98047.72;;;19.42;73.46
75317;BME280;63913;51.492;10.368;2023-07-16T04:25:24;98054.69;;;19.40;73.22
75317;BME280;63913;51.492;10.368;2023-07-16T04:27:49;98058.16;;;19.40;72.70
75317;BME280;63913;51.492;10.368;2023-07-16T04:30:15;98058.94;;;19.46;72.83
75317;BME280;63913;51.492;10.368;2023-07-16T04:32:40;98067.63;;;19.48;72.56
75317;BME280;63913;51.492;10.368;2023-07-16T04:35:06;98066.69;;;19.50;72.88
75317;BME280;63913;51.492;10.368;2023-07-16T04:37:31;98078.03;;;19.46;71.96
75317;BME280;63913;51.492;10.368;2023-07-16T04:39:56;98078.09;;;19.44;72.16
75317;BME280;63913;51.492;10.368;2023-07-16T04:42:22;98077.25;;;19.42;72.12
75317;BME280;63913;51.492;10.368;2023-07-16T04:44:47;98080.78;;;19.38;71.51
75317;BME280;63913;51.492;10.368;2023-07-16T04:47:13;98092.34;;;19.27;71.38
75317;BME280;63913;51.492;10.368;2023-07-16T04:49:38;98089.66;;;19.30;71.57
75317;BME280;63913;51.492;10.368;2023-07-16T04:52:04;98091.44;;;19.28;70.81
75317;BME280;63913;51.492;10.368;2023-07-16T04:54:35;98095.00;;;19.22;70.95
75317;BME280;63913;51.492;10.368;2023-07-16T04:57:00;98098.38;;;19.29;71.08
75317;BME280;63913;51.492;10.368;2023-07-16T04:59:25;98098.34;;;19.30;70.36
75317;BME280;63913;51.492;10.368;2023-07-16T05:01:51;98101.75;;;19.34;70.50
75317;BME280;63913;51.492;10.368;2023-07-16T05:04:16;98103.53;;;19.32;70.36
75317;BME280;63913;51.492;10.368;2023-07-16T05:06:41;98106.25;;;19.26;69.92
75317;BME280;63913;51.492;10.368;2023-07-16T05:09:07;98108.91;;;19.23;70.35
75317;BME280;63913;51.492;10.368;2023-07-16T05:11:32;98104.50;;;19.26;70.12
75317;BME280;63913;51.492;10.368;2023-07-16T05:13:58;98115.81;;;19.25;69.34
75317;BME280;63913;51.492;10.368;2023-07-16T05:16:23;98120.13;;;19.28;69.79
75317;BME280;63913;51.492;10.368;2023-07-16T05:18:49;98113.13;;;19.30;70.24
75317;BME280;63913;51.492;10.368;2023-07-16T05:21:14;98120.06;;;19.31;69.90
75317;BME280;63913;51.492;10.368;2023-07-16T05:23:39;98124.38;;;19.33;69.52
75317;BME280;63913;51.492;10.368;2023-07-16T05:26:05;98136.56;;;19.31;69.51
75317;BME280;63913;51.492;10.368;2023-07-16T05:28:30;98142.50;;;19.38;69.51
75317;BME280;63913;51.492;10.368;2023-07-16T05:31:00;98144.16;;;19.45;69.02
75317;BME280;63913;51.492;10.368;2023-07-16T05:33:25;98137.19;;;19.46;68.67
75317;BME280;63913;51.492;10.368;2023-07-16T05:35:51;98150.28;;;19.42;68.29
75317;BME280;63913;51.492;10.368;2023-07-16T05:38:16;98146.03;;;19.37;67.96
75317;BME280;63913;51.492;10.368;2023-07-16T05:40:42;98159.00;;;19.40;67.92
75317;BME280;63913;51.492;10.368;2023-07-16T05:43:07;98153.72;;;19.44;67.76
75317;BME280;63913;51.492;10.368;2023-07-16T05:45:32;98160.59;;;19.50;67.60
75317;BME280;63913;51.492;10.368;2023-07-16T05:47:58;98157.94;;;19.53;67.72
75317;BME280;63913;51.492;10.368;2023-07-16T05:50:23;98163.09;;;19.55;67.45
75317;BME280;63913;51.492;10.368;2023-07-16T05:52:48;98156.22;;;19.52;68.04
75317;BME280;63913;51.492;10.368;2023-07-16T05:55:14;98164.91;;;19.51;67.69
75317;BME280;63913;51.492;10.368;2023-07-16T05:57:40;98161.41;;;19.54;67.39
75317;BME280;63913;51.492;10.368;2023-07-16T06:00:06;98163.91;;;19.58;67.43
75317;BME280;63913;51.492;10.368;2023-07-16T06:02:36;98164.78;;;19.57;67.36
75317;BME280;63913;51.492;10.368;2023-07-16T06:05:02;98177.94;;;19.53;67.22
75317;BME280;63913;51.492;10.368;2023-07-16T06:07:27;98173.63;;;19.50;66.36
75317;BME280;63913;51.492;10.368;2023-07-16T06:09:53;98169.31;;;19.46;66.56
75317;BME280;63913;51.492;10.368;2023-07-16T06:12:18;98173.75;;;19.42;66.88
75317;BME280;63913;51.492;10.368;2023-07-16T06:14:43;98169.28;;;19.51;66.60
75317;BME280;63913;51.492;10.368;2023-07-16T06:17:09;98175.34;;;19.51;66.28
75317;BME280;63913;51.492;10.368;2023-07-16T06:19:34;98181.50;;;19.47;65.74
75317;BME280;63913;51.492;10.368;2023-07-16T06:22:00;98189.31;;;19.47;65.76
75317;BME280;63913;51.492;10.368;2023-07-16T06:24:25;98197.09;;;19.50;64.82
75317;BME280;63913;51.492;10.368;2023-07-16T06:26:51;98194.56;;;19.46;63.90
75317;BME280;63913;51.492;10.368;2023-07-16T06:29:16;98187.53;;;19.51;64.90
75317;BME280;63913;51.492;10.368;2023-07-16T06:31:42;98200.53;;;19.54;64.71
75317;BME280;63913;51.492;10.368;2023-07-16T06:34:09;98190.00;;;19.57;63.69
75317;BME280;63913;51.492;10.368;2023-07-16T06:36:34;98195.97;;;19.63;62.80
75317;BME280;63913;51.492;10.368;2023-07-16T06:38:59;98191.72;;;19.59;62.50
75317;BME280;63913;51.492;10.368;2023-07-16T06:41:25;98195.22;;;19.57;62.13
75317;BME280;63913;51.492;10.368;2023-07-16T06:43:51;98207.44;;;19.55;63.10
75317;BME280;63913;51.492;10.368;2023-07-16T06:46:16;98197.00;;;19.55;62.00
75317;BME280;63913;51.492;10.368;2023-07-16T06:48:41;98205.75;;;19.54;62.24
75317;BME280;63913;51.492;10.368;2023-07-16T06:51:07;98213.50;;;19.57;61.01
75317;BME280;63913;51.492;10.368;2023-07-16T06:53:33;98214.34;;;19.57;61.86
75317;BME280;63913;51.492;10.368;2023-07-16T06:55:58;98200.31;;;19.63;61.09
75317;BME280;63913;51.492;10.368;2023-07-16T06:58:33;98204.69;;;19.62;60.26
75317;BME280;63913;51.492;10.368;2023-07-16T07:00:59;98205.53;;;19.64;60.71
75317;BME280;63913;51.492;10.368;2023-07-16T07:03:24;98221.16;;;19.64;61.14
75317;BME280;63913;51.492;10.368;2023-07-16T07:05:50;98215.84;;;19.70;59.42
75317;BME280;63913;51.492;10.368;2023-07-16T07:08:15;98212.28;;;19.74;58.81
75317;BME280;63913;51.492;10.368;2023-07-16T07:10:40;98221.16;;;19.64;59.36
75317;BME280;63913;51.492;10.368;2023-07-16T07:13:06;98223.78;;;19.64;59.40
75317;BME280;63913;51.492;10.368;2023-07-16T07:15:31;98233.34;;;19.65;59.45
75317;BME280;63913;51.492;10.368;2023-07-16T07:17:57;98230.69;;;19.68;58.48
75317;BME280;63913;51.492;10.368;2023-07-16T07:20:22;98232.31;;;19.72;58.32
75317;BME280;63913;51.492;10.368;2023-07-16T07:22:47;98226.19;;;19.76;58.01
75317;BME280;63913;51.492;10.368;2023-07-16T07:25:13;98236.69;;;19.72;56.07
75317;BME280;63913;51.492;10.368;2023-07-16T07:27:38;98226.41;;;19.63;55.29
75317;BME280;63913;51.492;10.368;2023-07-16T07:30:04;98225.50;;;19.65;55.52
75317;BME280;63913;51.492;10.368;2023-07-16T07:32:30;98228.97;;;19.66;54.16
75317;BME280;63913;51.492;10.368;2023-07-16T07:34:55;98233.44;;;19.61;54.63
75317;BME280;63913;51.492;10.368;2023-07-16T07:37:20;98229.09;;;19.60;55.61
75317;BME280;63913;51.492;10.368;2023-07-16T07:39:51;98211.53;;;19.69;56.14
75317;BME280;63913;51.492;10.368;2023-07-16T07:42:17;98206.19;;;19.75;56.20
75317;BME280;63913;51.492;10.368;2023-07-16T07:44:42;98205.13;;;19.86;56.12
75317;BME280;63913;51.492;10.368;2023-07-16T07:47:08;98228.47;;;19.93;54.77
75317;BME280;63913;51.492;10.368;2023-07-16T07:49:34;98225.78;;;19.96;53.49
75317;BME280;63913;51.492;10.368;2023-07-16T07:51:59;98216.19;;;19.98;53.58
75317;BME280;63913;51.492;10.368;2023-07-16T07:54:25;98221.25;;;20.04;53.05
75317;BME280;63913;51.492;10.368;2023-07-16T07:56:53;98213.38;;;20.07;53.21
75317;BME280;63913;51.492;10.368;2023-07-16T07:59:18;98223.09;;;20.01;51.57
75317;BME280;63913;51.492;10.368;2023-07-16T08:01:44;98219.44;;;20.09;51.92
75317;BME280;63913;51.492;10.368;2023-07-16T08:04:09;98217.75;;;20.07;51.30
75317;BME280;63913;51.492;10.368;2023-07-16T08:06:34;98230.66;;;20.13;51.57
75317;BME280;63913;51.492;10.368;2023-07-16T08:09:00;98227.88;;;20.22;51.13
75317;BME280;63913;51.492;10.368;2023-07-16T08:11:25;98235.53;;;20.30;50.54
75317;BME280;63913;51.492;10.368;2023-07-16T08:13:51;98245.09;;;20.31;50.18
75317;BME280;63913;51.492;10.368;2023-07-16T08:16:16;98244.25;;;20.30;50.97
75317;BME280;63913;51.492;10.368;2023-07-16T08:18:42;98241.53;;;20.36;50.30
75317;BME280;63913;51.492;10.368;2023-07-16T08:21:07;98242.19;;;20.46;49.35
75317;BME280;63913;51.492;10.368;2023-07-16T08:23:32;98261.03;;;20.60;50.38
75317;BME280;63913;51.492;10.368;2023-07-16T08:25:58;98236.75;;;20.56;48.32
75317;BME280;63913;51.492;10.368;2023-07-16T08:28:23;98241.81;;;20.64;47.99
75317;BME280;63913;51.492;10.368;2023-07-16T08:30:49;98236.94;;;20.86;48.09
75317;BME280;63913;51.492;10.368;2023-07-16T08:33:15;98244.31;;;21.07;48.16
75317;BME280;63913;51.492;10.368;2023-07-16T08:35:41;98244.13;;;21.15;46.75
75317;BME280;63913;51.492;10.368;2023-07-16T08:38:07;98256.28;;;21.17;46.65
75317;BME280;63913;51.492;10.368;2023-07-16T08:40:36;98257.91;;;21.23;47.24
75317;BME280;63913;51.492;10.368;2023-07-16T08:43:03;98236.59;;;21.38;47.37
75317;BME280;63913;51.492;10.368;2023-07-16T08:45:31;98223.81;;;21.60;46.96
75317;BME280;63913;51.492;10.368;2023-07-16T08:47:56;98235.97;;;21.62;46.83
75317;BME280;63913;51.492;10.368;2023-07-16T08:50:22;98244.78;;;21.58;47.23
75317;BME280;63913;51.492;10.368;2023-07-16T08:52:49;98249.91;;;21.63;46.90
75317;BME280;63913;51.492;10.368;2023-07-16T08:55:14;98261.94;;;21.36;45.29
75317;BME280;63913;51.492;10.368;2023-07-16T08:57:42;98264.13;;;21.53;45.83
75317;BME280;63913;51.492;10.368;2023-07-16T09:00:09;98254.97;;;21.69;45.45
75317;BME280;63913;51.492;10.368;2023-07-16T09:02:34;98255.97;;;21.97;45.04
75317;BME280;63913;51.492;10.368;2023-07-16T09:05:00;98244.25;;;22.12;43.25
75317;BME280;63913;51.492;10.368;2023-07-16T09:07:26;98250.63;;;22.33;42.84
75317;BME280;63913;51.492;10.368;2023-07-16T09:09:55;98241.56;;;22.44;41.59
75317;BME280;63913;51.492;10.368;2023-07-16T09:12:24;98265.66;;;22.56;41.55
75317;BME280;63913;51.492;10.368;2023-07-16T09:14:49;98248.53;;;22.45;42.15
75317;BME280;63913;51.492;10.368;2023-07-16T09:17:20;98254.47;;;22.21;43.67
75317;BME280;63913;51.492;10.368;2023-07-16T09:19:46;98266.31;;;22.03;42.41
75317;BME280;63913;51.492;10.368;2023-07-16T09:22:11;98265.63;;;21.95;41.73
75317;BME280;63913;51.492;10.368;2023-07-16T09:24:36;98256.09;;;21.93;42.62
75317;BME280;63913;51.492;10.368;2023-07-16T09:27:02;98261.56;;;21.84;42.07
75317;BME280;63913;51.492;10.368;2023-07-16T09:29:28;98264.31;;;21.79;41.63
75317;BME280;63913;51.492;10.368;2023-07-16T09:32:01;98266.38;;;22.00;41.25
75317;BME280;63913;51.492;10.368;2023-07-16T09:34:33;98262.81;;;22.03;42.02
75317;BME280;63913;51.492;10.368;2023-07-16T09:36:59;98265.63;;;22.28;42.17
75317;BME280;63913;51.492;10.368;2023-07-16T09:39:26;98260.44;;;22.56;41.70
75317;BME280;63913;51.492;10.368;2023-07-16T09:41:51;98266.19;;;22.68;40.45
75317;BME280;63913;51.492;10.368;2023-07-16T09:44:17;98269.59;;;22.41;38.78
75317;BME280;63913;51.492;10.368;2023-07-16T09:46:44;98270.28;;;22.17;40.30
75317;BME280;63913;51.492;10.368;2023-07-16T09:49:10;98282.06;;;22.02;40.90
75317;BME280;63913;51.492;10.368;2023-07-16T09:51:36;98274.78;;;22.13;41.25
75317;BME280;63913;51.492;10.368;2023-07-16T09:54:02;98273.47;;;22.28;41.79
75317;BME280;63913;51.492;10.368;2023-07-16T09:56:35;98267.16;;;22.35;40.90
75317;BME280;63913;51.492;10.368;2023-07-16T09:59:01;98284.34;;;22.45;40.85
75317;BME280;63913;51.492;10.368;2023-07-16T10:01:29;98262.91;;;22.31;40.98
75317;BME280;63913;51.492;10.368;2023-07-16T10:03:54;98268.97;;;22.33;41.59
75317;BME280;63913;51.492;10.368;2023-07-16T10:06:20;98275.59;;;22.14;41.90
75317;BME280;63913;51.492;10.368;2023-07-16T10:08:49;98276.78;;;22.03;42.62
75317;BME280;63913;51.492;10.368;2023-07-16T10:11:16;98289.22;;;21.94;41.27
75317;BME280;63913;51.492;10.368;2023-07-16T10:13:42;98285.59;;;21.99;40.11
75317;BME280;63913;51.492;10.368;2023-07-16T10:16:07;98277.72;;;22.32;41.99
75317;BME280;63913;51.492;10.368;2023-07-16T10:18:35;98282.84;;;22.66;39.03
75317;BME280;63913;51.492;10.368;2023-07-16T10:21:08;98277.78;;;22.89;37.47
75317;BME280;63913;51.492;10.368;2023-07-16T10:23:38;98278.38;;;22.69;37.77
75317;BME280;63913;51.492;10.368;2023-07-16T10:26:05;98274.59;;;22.79;37.75
75317;BME280;63913;51.492;10.368;2023-07-16T10:28:32;98296.81;;;22.96;36.72
75317;BME280;63913;51.492;10.368;2023-07-16T10:30:58;98273.78;;;23.05;36.71
75317;BME280;63913;51.492;10.368;2023-07-16T10:33:23;98264.06;;;23.09;36.71
75317;BME280;63913;51.492;10.368;2023-07-16T10:35:49;98281.19;;;23.20;36.21
75317;BME280;63913;51.492;10.368;2023-07-16T10:38:14;98273.81;;;23.32;37.15
75317;BME280;63913;51.492;10.368;2023-07-16T10:40:41;98267.75;;;23.57;37.27
75317;BME280;63913;51.492;10.368;2023-07-16T10:43:06;98269.13;;;23.68;37.67
75317;BME280;63913;51.492;10.368;2023-07-16T10:45:32;98276.13;;;23.69;37.46
75317;BME280;63913;51.492;10.368;2023-07-16T10:47:58;98283.13;;;23.68;36.50
75317;BME280;63913;51.492;10.368;2023-07-16T10:50:23;98261.06;;;23.74;37.54
75317;BME280;63913;51.492;10.368;2023-07-16T10:52:56;98277.38;;;23.83;37.70
75317;BME280;63913;51.492;10.368;2023-07-16T10:55:22;98282.78;;;23.79;37.14
75317;BME280;63913;51.492;10.368;2023-07-16T10:57:49;98262.66;;;23.78;37.65
75317;BME280;63913;51.492;10.368;2023-07-16T11:00:15;98278.34;;;23.81;38.13
75317;BME280;63913;51.492;10.368;2023-07-16T11:02:41;98264.28;;;23.82;36.63
75317;BME280;63913;51.492;10.368;2023-07-16T11:05:11;98258.44;;;23.99;37.12
75317;BME280;63913;51.492;10.368;2023-07-16T11:07:37;98274.00;;;24.05;35.47
75317;BME280;63913;51.492;10.368;2023-07-16T11:10:02;98272.38;;;23.76;36.25
75317;BME280;63913;51.492;10.368;2023-07-16T11:12:28;98279.00;;;23.61;36.72
75317;BME280;63913;51.492;10.368;2023-07-16T11:14:55;98288.47;;;23.39;37.62
75317;BME280;63913;51.492;10.368;2023-07-16T11:17:22;98282.91;;;23.21;38.35
75317;BME280;63913;51.492;10.368;2023-07-16T11:19:50;98281.56;;;23.08;38.24
75317;BME280;63913;51.492;10.368;2023-07-16T11:22:16;98279.25;;;22.99;38.50
75317;BME280;63913;51.492;10.368;2023-07-16T11:29:38;98268.38;;;23.38;37.37
75317;BME280;63913;51.492;10.368;2023-07-16T11:32:04;98281.09;;;23.24;37.40
75317;BME280;63913;51.492;10.368;2023-07-16T11:34:30;98280.69;;;23.36;37.50
75317;BME280;63913;51.492;10.368;2023-07-16T11:37:07;98282.34;;;23.38;37.53
75317;BME280;63913;51.492;10.368;2023-07-16T11:39:32;98269.16;;;23.41;37.73
75317;BME280;63913;51.492;10.368;2023-07-16T11:41:58;98303.56;;;23.32;37.87
75317;BME280;63913;51.492;10.368;2023-07-16T11:44:24;98294.50;;;23.14;38.35
75317;BME280;63913;51.492;10.368;2023-07-16T11:46:49;98289.56;;;23.04;38.10
75317;BME280;63913;51.492;10.368;2023-07-16T11:49:15;98287.22;;;22.95;37.94
75317;BME280;63913;51.492;10.368;2023-07-16T11:51:40;98292.03;;;23.10;37.91
75317;BME280;63913;51.492;10.368;2023-07-16T11:54:09;98288.88;;;23.27;37.27
75317;BME280;63913;51.492;10.368;2023-07-16T11:56:35;98292.16;;;23.33;36.29
75317;BME280;63913;51.492;10.368;2023-07-16T11:59:01;98284.44;;;23.27;37.07
75317;BME280;63913;51.492;10.368;2023-07-16T12:01:26;98277.81;;;23.17;36.59
75317;BME280;63913;51.492;10.368;2023-07-16T12:03:52;98274.78;;;23.29;35.79
75317;BME280;63913;51.492;10.368;2023-07-16T12:06:17;98290.91;;;23.71;35.36
75317;BME280;63913;51.492;10.368;2023-07-16T12:08:43;98285.09;;;23.88;35.27
75317;BME280;63913;51.492;10.368;2023-07-16T12:11:08;98280.31;;;23.99;34.61
75317;BME280;63913;51.492;10.368;2023-07-16T12:13:33;98281.38;;;24.18;35.77
75317;BME280;63913;51.492;10.368;2023-07-16T12:15:59;98283.88;;;24.23;34.62
75317;BME280;63913;51.492;10.368;2023-07-16T12:18:24;98278.78;;;24.42;34.88
75317;BME280;63913;51.492;10.368;2023-07-16T12:20:50;98284.28;;;24.59;34.03
75317;BME280;63913;51.492;10.368;2023-07-16T12:23:15;98280.59;;;24.64;33.75
75317;BME280;63913;51.492;10.368;2023-07-16T12:25:40;98281.31;;;24.45;33.47
75317;BME280;63913;51.492;10.368;2023-07-16T12:28:08;98277.88;;;24.66;33.57
75317;BME280;63913;51.492;10.368;2023-07-16T12:30:34;98283.28;;;24.63;34.09
75317;BME280;63913;51.492;10.368;2023-07-16T12:32:59;98270.91;;;24.88;34.57
75317;BME280;63913;51.492;10.368;2023-07-16T12:35:25;98282.03;;;24.96;32.56
75317;BME280;63913;51.492;10.368;2023-07-16T12:37:50;98280.25;;;25.19;32.91
75317;BME280;63913;51.492;10.368;2023-07-16T12:40:16;98273.25;;;24.96;31.52
75317;BME280;63913;51.492;10.368;2023-07-16T12:42:42;98274.44;;;24.87;32.00
75317;BME280;63913;51.492;10.368;2023-07-16T12:45:08;98270.38;;;25.02;31.72
75317;BME280;63913;51.492;10.368;2023-07-16T12:47:33;98274.72;;;25.25;32.29
75317;BME280;63913;51.492;10.368;2023-07-16T12:49:59;98278.16;;;25.27;31.76
75317;BME280;63913;51.492;10.368;2023-07-16T12:52:24;98288.81;;;25.45;31.21
75317;BME280;63913;51.492;10.368;2023-07-16T12:54:49;98269.09;;;25.54;32.58